Time;durP1;ratioP1;P1;durP2;ratioP2;P2;SDS_P1;SDS_P2;PMS_P1;PMS_P2;Temp;Humidity;BMP_temperature;BMP_pressure;BME280_temperature;BME280_humidity;BME280_pressure;Samples;Min_cycle;Max_cycle;Signal;HPM_P1;HPM_P2
2021/09/03 00:02:15;;;;;;;24.80;18.03;;;14.20;99.90;;;;;;5142749;27;20451;-86
2021/09/03 00:04:42;;;;;;;28.70;19.70;;;14.20;99.90;;;;;;5141753;27;20541;-87
2021/09/03 00:07:10;;;;;;;27.93;19.77;;;14.20;99.90;;;;;;5141958;27;20446;-87
2021/09/03 00:09:37;;;;;;;23.70;17.30;;;14.20;99.90;;;;;;5141884;27;20486;-86
2021/09/03 00:12:05;;;;;;;29.17;18.67;;;14.20;99.90;;;;;;5142357;27;20491;-86
2021/09/03 00:14:32;;;;;;;25.07;16.83;;;14.20;99.90;;;;;;5141479;27;20443;-87
2021/09/03 00:16:59;;;;;;;25.30;16.23;;;14.20;99.90;;;;;;5144054;27;20500;-87
2021/09/03 00:19:26;;;;;;;22.97;16.10;;;14.30;99.90;;;;;;5140887;27;20487;-86
2021/09/03 00:21:53;;;;;;;20.50;15.40;;;14.30;99.90;;;;;;5141346;27;20480;-88
2021/09/03 00:24:21;;;;;;;21.23;15.50;;;14.40;99.90;;;;;;5141555;27;20489;-86
2021/09/03 00:26:49;;;;;;;25.40;16.47;;;14.50;99.90;;;;;;5141858;27;20842;-87
2021/09/03 00:29:16;;;;;;;24.27;16.17;;;14.50;99.90;;;;;;5141020;27;20555;-87
2021/09/03 00:31:44;;;;;;;21.33;15.70;;;14.50;99.90;;;;;;5141348;27;20490;-87
2021/09/03 00:34:11;;;;;;;18.13;14.30;;;14.50;99.90;;;;;;5140408;27;20457;-87
2021/09/03 00:36:37;;;;;;;27.57;15.00;;;14.50;99.90;;;;;;5140759;27;20811;-87
2021/09/03 00:39:04;;;;;;;26.00;16.00;;;14.50;99.90;;;;;;5140964;27;21024;-87
2021/09/03 00:41:32;;;;;;;19.53;15.53;;;14.40;99.90;;;;;;5142006;27;20502;-87
2021/09/03 00:43:59;;;;;;;22.20;15.93;;;14.30;99.90;;;;;;5142120;27;20587;-86
2021/09/03 00:46:25;;;;;;;27.03;18.40;;;14.30;99.90;;;;;;5141147;27;20499;-87
2021/09/03 00:48:52;;;;;;;24.67;15.47;;;14.30;99.90;;;;;;5140754;27;21002;-87
2021/09/03 00:51:18;;;;;;;27.40;18.00;;;14.30;99.90;;;;;;5141304;27;20491;-87
2021/09/03 00:53:45;;;;;;;21.10;15.73;;;14.20;99.90;;;;;;5142299;27;20442;-86
2021/09/03 00:56:11;;;;;;;24.80;16.67;;;14.10;99.90;;;;;;5145315;27;20438;-87
2021/09/03 00:58:39;;;;;;;22.90;16.17;;;14.10;99.90;;;;;;5145828;27;20476;-87
2021/09/03 01:01:06;;;;;;;27.23;17.10;;;14.00;99.90;;;;;;5144867;27;20511;-88
2021/09/03 01:03:33;;;;;;;22.73;14.90;;;14.00;99.90;;;;;;5144738;27;20480;-87
2021/09/03 01:06:02;;;;;;;25.20;16.90;;;14.10;99.90;;;;;;5143175;27;20477;-88
2021/09/03 01:08:29;;;;;;;20.60;13.33;;;14.20;99.90;;;;;;5141606;27;20974;-87
2021/09/03 01:10:56;;;;;;;26.80;15.20;;;14.10;99.90;;;;;;5143790;27;20441;-88
2021/09/03 01:13:22;;;;;;;19.80;14.93;;;14.10;99.90;;;;;;5161719;27;20421;-87
2021/09/03 01:15:53;;;;;;;21.13;15.50;;;14.10;99.90;;;;;;5161284;27;20438;-87
2021/09/03 01:18:20;;;;;;;23.37;14.30;;;14.10;99.90;;;;;;5134838;27;20486;-87
2021/09/03 01:20:47;;;;;;;19.37;14.63;;;13.90;99.90;;;;;;5148883;27;20465;-87
2021/09/03 01:23:15;;;;;;;26.03;15.57;;;14.00;99.90;;;;;;5149227;27;20438;-87
2021/09/03 01:25:42;;;;;;;21.10;13.70;;;14.00;99.90;;;;;;5154252;27;20474;-87
2021/09/03 01:28:09;;;;;;;20.77;15.00;;;13.90;99.90;;;;;;5148106;27;20447;-87
2021/09/03 01:30:36;;;;;;;28.17;15.27;;;14.10;99.90;;;;;;5144621;27;20450;-87
2021/09/03 01:33:03;;;;;;;20.73;14.73;;;14.20;99.90;;;;;;5152176;27;20434;-87
2021/09/03 01:35:30;;;;;;;24.47;14.00;;;14.10;99.90;;;;;;5156747;27;20443;-87
2021/09/03 01:37:56;;;;;;;21.83;13.80;;;14.10;99.90;;;;;;5161846;27;20466;-87
2021/09/03 01:40:24;;;;;;;26.57;15.10;;;14.10;99.90;;;;;;5161619;27;20438;-87
2021/09/03 01:42:51;;;;;;;20.90;15.20;;;14.10;99.90;;;;;;5161001;27;20451;-87
2021/09/03 01:45:17;;;;;;;21.67;14.80;;;14.10;99.90;;;;;;5161464;27;20504;-87
2021/09/03 01:47:44;;;;;;;22.13;15.90;;;14.00;99.90;;;;;;5161364;27;20471;-86
2021/09/03 01:50:11;;;;;;;19.57;14.97;;;14.00;99.90;;;;;;5160560;27;20450;-86
2021/09/03 01:52:37;;;;;;;22.47;14.30;;;14.00;99.90;;;;;;5159762;27;20484;-87
2021/09/03 01:55:05;;;;;;;22.67;14.50;;;14.00;99.90;;;;;;5152616;27;20453;-87
2021/09/03 01:57:33;;;;;;;21.47;13.60;;;14.00;99.90;;;;;;5145505;27;20430;-87
2021/09/03 01:59:59;;;;;;;21.40;14.30;;;14.00;99.90;;;;;;5140594;27;20430;-87
2021/09/03 02:02:26;;;;;;;19.30;14.63;;;14.00;99.90;;;;;;5138166;27;20486;-87
2021/09/03 02:04:53;;;;;;;19.57;14.37;;;13.90;99.90;;;;;;5138764;27;20550;-87
2021/09/03 02:07:20;;;;;;;18.00;12.97;;;14.10;99.90;;;;;;5139010;27;20483;-87
2021/09/03 02:09:46;;;;;;;19.20;14.43;;;13.90;99.90;;;;;;5121106;27;20852;-87
2021/09/03 02:12:13;;;;;;;20.17;14.33;;;13.90;99.90;;;;;;5139699;27;20442;-87
2021/09/03 02:14:42;;;;;;;24.10;15.17;;;13.90;99.90;;;;;;5160045;27;20422;-89
2021/09/03 02:17:09;;;;;;;22.63;14.60;;;13.90;99.90;;;;;;5161240;27;20419;-87
2021/09/03 02:19:35;;;;;;;22.50;13.70;;;13.90;99.90;;;;;;5161290;27;20445;-87
2021/09/03 02:22:02;;;;;;;22.67;14.53;;;13.80;99.90;;;;;;5160502;27;20438;-87
2021/09/03 02:24:29;;;;;;;23.63;14.70;;;13.80;99.90;;;;;;5139657;27;20478;-87
2021/09/03 02:26:56;;;;;;;22.40;13.97;;;13.80;99.90;;;;;;5138944;27;20445;-87
2021/09/03 02:29:23;;;;;;;22.13;14.33;;;13.80;99.90;;;;;;5138854;27;20491;-87
2021/09/03 02:31:51;;;;;;;19.43;12.93;;;13.80;99.90;;;;;;5139180;27;20462;-87
2021/09/03 02:34:18;;;;;;;20.93;13.60;;;13.80;99.90;;;;;;5139627;27;20450;-87
2021/09/03 02:36:45;;;;;;;20.10;14.43;;;13.80;99.90;;;;;;5141734;27;20854;-87
2021/09/03 02:39:12;;;;;;;26.40;13.43;;;13.80;99.90;;;;;;5146472;27;20466;-87
2021/09/03 02:41:38;;;;;;;18.03;12.73;;;13.90;99.90;;;;;;5147799;27;20430;-87
2021/09/03 02:44:05;;;;;;;19.80;14.10;;;13.90;99.90;;;;;;5138518;27;20478;-87
2021/09/03 02:46:32;;;;;;;21.27;14.00;;;13.80;99.90;;;;;;5137560;27;20442;-87
2021/09/03 02:49:00;;;;;;;22.63;15.57;;;13.80;99.90;;;;;;5137283;27;20494;-87
2021/09/03 02:51:26;;;;;;;19.90;13.77;;;13.70;99.90;;;;;;5139233;27;20787;-87
2021/09/03 02:53:53;;;;;;;23.50;13.10;;;13.70;99.90;;;;;;5137264;27;20442;-87
2021/09/03 02:56:19;;;;;;;23.70;13.40;;;13.70;99.90;;;;;;5136804;27;20507;-87
2021/09/03 02:58:46;;;;;;;20.63;14.47;;;13.60;99.90;;;;;;5137331;27;20469;-87
2021/09/03 03:01:13;;;;;;;21.90;13.87;;;13.70;99.90;;;;;;5137861;27;20476;-87
2021/09/03 03:03:39;;;;;;;23.10;13.90;;;13.60;99.90;;;;;;5137940;27;20816;-87
2021/09/03 03:06:07;;;;;;;21.30;14.37;;;13.60;99.90;;;;;;5137284;27;20529;-87
2021/09/03 03:08:34;;;;;;;20.57;15.10;;;13.60;99.90;;;;;;5137703;27;20516;-87
2021/09/03 03:11:00;;;;;;;22.73;13.80;;;13.60;99.90;;;;;;5139083;27;20453;-86
2021/09/03 03:13:29;;;;;;;18.90;12.93;;;13.60;99.90;;;;;;5138376;27;20607;-87
2021/09/03 03:15:55;;;;;;;23.57;13.57;;;13.60;99.90;;;;;;5137901;27;21000;-87
2021/09/03 03:18:22;;;;;;;16.80;13.80;;;13.50;99.90;;;;;;5139057;27;20494;-88
2021/09/03 03:20:50;;;;;;;18.90;14.07;;;13.50;99.90;;;;;;5139677;27;21016;-87
2021/09/03 03:23:19;;;;;;;20.20;12.93;;;13.50;99.90;;;;;;5152970;27;20439;-87
2021/09/03 03:25:46;;;;;;;21.60;14.53;;;13.50;99.90;;;;;;5155215;27;20496;-87
2021/09/03 03:28:13;;;;;;;23.23;15.67;;;13.60;99.90;;;;;;5152662;28;20477;-87
2021/09/03 03:30:40;;;;;;;19.03;14.63;;;13.60;99.90;;;;;;5148084;27;20503;-87
2021/09/03 03:33:07;;;;;;;16.27;12.40;;;13.50;99.90;;;;;;5141276;28;20465;-87
2021/09/03 03:35:33;;;;;;;17.40;13.07;;;13.40;99.90;;;;;;5139718;28;20487;-87
2021/09/03 03:38:00;;;;;;;18.20;13.33;;;13.40;99.90;;;;;;5141481;28;20466;-87
2021/09/03 03:40:28;;;;;;;15.40;12.63;;;13.40;99.90;;;;;;5141115;28;20465;-87
2021/09/03 03:42:55;;;;;;;19.30;14.47;;;13.40;99.90;;;;;;5140858;28;20472;-87
2021/09/03 03:45:21;;;;;;;18.33;13.30;;;13.40;99.90;;;;;;5138534;28;20482;-87
2021/09/03 03:47:48;;;;;;;25.80;14.63;;;13.40;99.90;;;;;;5138766;28;20474;-87
2021/09/03 03:50:17;;;;;;;20.13;13.77;;;13.40;99.90;;;;;;5148727;27;20423;-87
2021/09/03 03:52:44;;;;;;;16.43;13.23;;;13.30;99.90;;;;;;5159458;27;20434;-87
2021/09/03 03:55:10;;;;;;;24.70;14.13;;;13.40;99.90;;;;;;5159757;27;20422;-88
2021/09/03 03:57:38;;;;;;;23.90;16.07;;;13.20;99.90;;;;;;5156286;28;20431;-87
2021/09/03 04:00:07;;;;;;;24.13;15.00;;;13.30;99.90;;;;;;5140127;28;20439;-88
2021/09/03 04:02:33;;;;;;;17.90;13.03;;;13.30;99.90;;;;;;5140878;28;20468;-88
2021/09/03 04:05:00;;;;;;;20.87;15.43;;;13.30;99.90;;;;;;5139027;28;20551;-88
2021/09/03 04:07:27;;;;;;;22.30;15.37;;;13.40;99.90;;;;;;5142642;28;20472;-87
2021/09/03 04:09:53;;;;;;;22.07;13.83;;;13.30;99.90;;;;;;5155319;27;20446;-88
2021/09/03 04:12:20;;;;;;;17.60;12.70;;;13.30;99.90;;;;;;5159476;27;20430;-87
2021/09/03 04:14:48;;;;;;;21.77;13.83;;;13.20;99.90;;;;;;5159942;27;20443;-87
2021/09/03 04:17:14;;;;;;;21.33;14.10;;;13.20;99.90;;;;;;5159590;27;20446;-88
2021/09/03 04:19:41;;;;;;;18.90;14.03;;;13.20;99.90;;;;;;5159091;28;20454;-88
2021/09/03 04:22:07;;;;;;;21.73;13.50;;;13.20;99.90;;;;;;5145114;28;20487;-87
2021/09/03 04:24:34;;;;;;;21.10;12.80;;;13.20;99.90;;;;;;5150601;28;20443;-87
2021/09/03 04:27:00;;;;;;;25.10;14.33;;;13.20;99.90;;;;;;5142937;28;20464;-87
2021/09/03 04:29:27;;;;;;;18.73;12.67;;;13.20;99.90;;;;;;5142181;28;20984;-87
2021/09/03 04:31:55;;;;;;;20.07;13.80;;;13.20;99.90;;;;;;5140063;28;20450;-87
2021/09/03 04:34:22;;;;;;;23.20;15.30;;;13.30;99.90;;;;;;5140511;28;20443;-88
2021/09/03 04:36:49;;;;;;;20.27;14.77;;;13.20;99.90;;;;;;5141180;28;20439;-88
2021/09/03 04:39:15;;;;;;;17.83;14.03;;;13.20;99.90;;;;;;5146345;28;20462;-87
2021/09/03 04:41:42;;;;;;;16.47;13.83;;;13.20;99.90;;;;;;5154410;27;20439;-88
2021/09/03 04:44:08;;;;;;;21.73;14.00;;;13.20;99.90;;;;;;5159226;27;20449;-87
2021/09/03 04:46:35;;;;;;;22.57;14.37;;;13.20;99.90;;;;;;5160560;27;20482;-88
2021/09/03 04:49:03;;;;;;;29.93;19.20;;;13.20;99.90;;;;;;5158245;27;20522;-88
2021/09/03 04:51:29;;;;;;;26.87;18.07;;;13.10;99.90;;;;;;5146156;27;20451;-87
2021/09/03 04:53:56;;;;;;;38.47;19.10;;;13.10;99.90;;;;;;5154332;27;20464;-86
2021/09/03 04:56:23;;;;;;;31.63;21.47;;;13.10;99.90;;;;;;5157208;27;20499;-86
2021/09/03 04:58:49;;;;;;;34.27;25.47;;;13.10;99.90;;;;;;5143304;27;20520;-87
2021/09/03 05:01:16;;;;;;;29.73;20.87;;;13.10;99.90;;;;;;5148252;27;20442;-87
2021/09/03 05:03:54;;;;;;;25.90;18.27;;;13.20;99.90;;;;;;5158386;27;20439;-88
2021/09/03 05:06:22;;;;;;;26.03;16.97;;;13.20;99.90;;;;;;5150192;27;20473;-88
2021/09/03 05:08:49;;;;;;;26.77;17.63;;;13.30;99.90;;;;;;5142210;27;20470;-88
2021/09/03 05:11:15;;;;;;;24.37;16.50;;;13.30;99.90;;;;;;5141592;27;20438;-88
2021/09/03 05:13:42;;;;;;;24.63;16.27;;;13.30;99.90;;;;;;5141184;27;20496;-88
2021/09/03 05:16:09;;;;;;;22.20;16.83;;;13.40;99.90;;;;;;5141913;27;20450;-88
2021/09/03 05:18:35;;;;;;;25.57;16.20;;;13.30;99.90;;;;;;5141086;27;20875;-88
2021/09/03 05:21:03;;;;;;;22.10;15.07;;;13.40;99.90;;;;;;5150277;27;20439;-88
2021/09/03 05:23:31;;;;;;;25.30;14.40;;;13.40;99.90;;;;;;5145305;27;20435;-88
2021/09/03 05:25:57;;;;;;;20.20;14.60;;;13.50;99.90;;;;;;5141742;27;20892;-88
2021/09/03 05:28:24;;;;;;;25.60;15.40;;;13.50;99.90;;;;;;5152421;27;20446;-89
2021/09/03 05:30:51;;;;;;;18.83;14.37;;;13.60;99.90;;;;;;5162025;27;20459;-88
2021/09/03 05:33:17;;;;;;;29.00;14.60;;;13.60;99.90;;;;;;5162175;27;20419;-89
2021/09/03 05:35:44;;;;;;;18.30;13.63;;;13.60;99.90;;;;;;5162059;27;20419;-87
2021/09/03 05:38:11;;;;;;;23.77;14.57;;;13.80;99.90;;;;;;5162001;27;20451;-88
2021/09/03 05:40:39;;;;;;;21.73;15.83;;;13.70;99.90;;;;;;5161914;27;20456;-88
2021/09/03 05:43:06;;;;;;;18.70;14.70;;;13.70;99.90;;;;;;5142460;27;20507;-87
2021/09/03 05:45:33;;;;;;;20.67;14.90;;;13.70;99.90;;;;;;5144195;27;20527;-87
2021/09/03 05:48:02;;;;;;;23.77;17.90;;;13.80;99.90;;;;;;5139483;27;20516;-87
2021/09/03 05:50:29;;;;;;;25.87;16.07;;;13.70;99.90;;;;;;5139489;27;20491;-87
2021/09/03 05:52:56;;;;;;;24.57;16.33;;;13.70;99.90;;;;;;5140131;27;20447;-87
2021/09/03 05:55:23;;;;;;;23.37;14.93;;;;;;;;;;5139685;27;20947;-87
2021/09/03 05:57:53;;;;;;;20.90;13.93;;;13.70;99.90;;;;;;5140612;27;20474;-87
2021/09/03 06:00:20;;;;;;;24.20;14.37;;;13.80;99.90;;;;;;5139581;27;20951;-87
2021/09/03 06:02:46;;;;;;;25.10;14.43;;;13.90;99.90;;;;;;5141083;27;20450;-87
2021/09/03 06:05:13;;;;;;;23.20;14.93;;;13.90;99.90;;;;;;5139757;27;20485;-87
2021/09/03 06:07:40;;;;;;;24.47;17.10;;;13.90;99.90;;;;;;5139820;27;20463;-87
2021/09/03 06:10:08;;;;;;;24.13;16.30;;;14.00;99.90;;;;;;5139490;27;20499;-87
2021/09/03 06:12:35;;;;;;;24.67;15.60;;;14.00;99.90;;;;;;5140481;27;20466;-87
2021/09/03 06:15:04;;;;;;;23.73;16.27;;;14.00;99.90;;;;;;5142097;27;20457;-87
2021/09/03 06:17:31;;;;;;;20.80;15.80;;;14.10;99.90;;;;;;5145784;27;20446;-86
2021/09/03 06:19:57;;;;;;;22.90;16.10;;;;;;;;;;5144027;27;20435;-87
2021/09/03 06:22:24;;;;;;;21.60;15.10;;;14.00;99.90;;;;;;5142188;27;20482;-87
2021/09/03 06:24:51;;;;;;;19.93;15.00;;;14.10;99.90;;;;;;5141345;27;20503;-88
2021/09/03 06:27:18;;;;;;;23.83;16.93;;;14.10;99.90;;;;;;5141220;27;20508;-87
2021/09/03 06:29:45;;;;;;;23.43;16.10;;;14.00;99.90;;;;;;5142453;27;20485;-87
2021/09/03 06:32:15;;;;;;;24.93;16.43;;;14.20;99.90;;;;;;5159080;27;20485;-87
2021/09/03 06:34:43;;;;;;;33.50;16.17;;;14.40;99.90;;;;;;5158178;27;20454;-87
2021/09/03 06:37:11;;;;;;;29.23;16.50;;;14.20;99.90;;;;;;5158716;27;20453;-87
2021/09/03 06:39:38;;;;;;;23.40;16.37;;;14.30;99.90;;;;;;5156021;27;20459;-87
2021/09/03 06:42:07;;;;;;;18.40;13.87;;;14.40;99.90;;;;;;5155364;27;20488;-87
2021/09/03 06:44:33;;;;;;;24.80;15.90;;;14.50;99.90;;;;;;5148180;27;20467;-87
2021/09/03 06:47:00;;;;;;;26.67;16.17;;;14.60;99.90;;;;;;5141675;27;20475;-87
2021/09/03 06:49:28;;;;;;;21.53;16.10;;;14.60;99.90;;;;;;5141135;27;20500;-87
2021/09/03 06:51:55;;;;;;;22.53;16.80;;;14.90;99.90;;;;;;5140874;27;20451;-87
2021/09/03 06:54:22;;;;;;;20.07;14.83;;;14.70;99.90;;;;;;5139046;27;20471;-87
2021/09/03 06:56:48;;;;;;;19.03;14.00;;;14.80;99.90;;;;;;5141804;27;20442;-87
2021/09/03 06:59:15;;;;;;;22.73;16.40;;;15.00;99.90;;;;;;5143575;27;20519;-87
2021/09/03 07:01:42;;;;;;;27.33;17.00;;;14.90;99.90;;;;;;5142364;27;20442;-87
2021/09/03 07:04:08;;;;;;;24.30;15.50;;;15.00;99.90;;;;;;5143095;27;20472;-87
2021/09/03 07:06:36;;;;;;;23.77;16.80;;;15.00;99.90;;;;;;5141308;27;20506;-87
2021/09/03 07:09:04;;;;;;;26.03;16.87;;;15.00;99.90;;;;;;5140432;27;20508;-87
2021/09/03 07:11:32;;;;;;;21.50;16.10;;;15.10;99.90;;;;;;5142242;27;20485;-87
2021/09/03 07:13:59;;;;;;;20.93;16.90;;;15.20;99.90;;;;;;5141527;27;20447;-87
2021/09/03 07:16:26;;;;;;;26.23;16.53;;;15.30;99.90;;;;;;5142740;27;20447;-87
2021/09/03 07:18:52;;;;;;;24.60;16.60;;;15.40;99.90;;;;;;5145944;27;20466;-87
2021/09/03 07:21:19;;;;;;;21.20;15.03;;;15.40;99.90;;;;;;5150711;27;20442;-87
2021/09/03 07:23:47;;;;;;;22.27;14.93;;;15.50;99.90;;;;;;5145657;27;20443;-87
2021/09/03 07:26:14;;;;;;;22.53;16.00;;;16.30;99.90;;;;;;5146816;27;20504;-87
2021/09/03 07:28:40;;;;;;;19.33;16.20;;;15.70;99.90;;;;;;5147796;28;20466;-87
2021/09/03 07:31:07;;;;;;;23.83;14.20;;;15.70;99.90;;;;;;5153665;28;20446;-87
2021/09/03 07:33:33;;;;;;;21.80;14.30;;;15.80;99.90;;;;;;5156655;28;20435;-87
2021/09/03 07:36:00;;;;;;;15.57;12.47;;;15.90;99.90;;;;;;5156296;28;20439;-87
2021/09/03 07:38:27;;;;;;;24.53;15.17;;;16.00;99.90;;;;;;5155760;28;20452;-87
2021/09/03 07:40:55;;;;;;;18.27;13.70;;;16.20;99.90;;;;;;5155450;28;20423;-87
2021/09/03 07:43:22;;;;;;;21.40;15.30;;;16.20;99.90;;;;;;5155364;28;20474;-87
2021/09/03 07:45:49;;;;;;;19.37;12.50;;;16.30;99.90;;;;;;5144968;28;20438;-87
2021/09/03 07:48:15;;;;;;;21.73;12.30;;;16.40;99.90;;;;;;5145089;28;20550;-86
2021/09/03 07:50:42;;;;;;;16.73;12.97;;;16.60;99.90;;;;;;5146255;28;20438;-87
2021/09/03 07:53:11;;;;;;;17.60;12.37;;;16.60;99.90;;;;;;5143466;28;20434;-87
2021/09/03 07:55:37;;;;;;;18.60;13.17;;;16.70;99.90;;;;;;5142311;28;20495;-86
2021/09/03 07:58:06;;;;;;;16.00;11.97;;;16.70;99.90;;;;;;5144556;28;20466;-88
2021/09/03 08:00:33;;;;;;;18.47;13.10;;;16.80;99.90;;;;;;5142876;28;20438;-87
2021/09/03 08:03:00;;;;;;;18.03;12.97;;;16.90;99.90;;;;;;5150648;28;20445;-87
2021/09/03 08:05:27;;;;;;;22.43;13.20;;;16.90;99.90;;;;;;5142265;28;20426;-87
2021/09/03 08:07:53;;;;;;;22.00;12.97;;;16.90;99.90;;;;;;5143433;28;20493;-87
2021/09/03 08:10:20;;;;;;;19.30;12.63;;;16.90;99.90;;;;;;5150660;27;20443;-85
2021/09/03 08:12:47;;;;;;;20.40;12.47;;;17.20;99.90;;;;;;5153649;28;20484;-86
2021/09/03 08:15:16;;;;;;;20.67;12.50;;;17.20;99.90;;;;;;5143329;28;20472;-87
2021/09/03 08:17:43;;;;;;;20.13;12.30;;;17.10;99.90;;;;;;5146271;27;20461;-86
2021/09/03 08:20:13;;;;;;;14.93;13.33;;;17.20;99.90;;;;;;5155633;27;20464;-86
2021/09/03 08:22:40;;;;;;;16.53;12.23;;;17.10;99.90;;;;;;5153724;27;20437;-87
2021/09/03 08:25:07;;;;;;;16.60;12.57;;;17.20;99.90;;;;;;5147380;27;20450;-88
2021/09/03 08:27:34;;;;;;;17.70;13.70;;;17.70;99.90;;;;;;5146410;27;20482;-87
2021/09/03 08:30:01;;;;;;;17.50;12.50;;;17.40;99.90;;;;;;5156798;27;20912;-87
2021/09/03 08:32:32;;;;;;;19.10;13.47;;;17.20;99.90;;;;;;5161104;27;20435;-89
2021/09/03 08:34:59;;;;;;;19.03;12.80;;;;;;;;;;5161254;27;20419;-87
2021/09/03 08:37:26;;;;;;;18.60;12.70;;;17.50;99.90;;;;;;5154582;27;20464;-87
2021/09/03 08:39:54;;;;;;;17.03;12.20;;;17.50;99.90;;;;;;5144779;27;20471;-87
2021/09/03 08:42:21;;;;;;;20.33;13.47;;;17.60;99.90;;;;;;5152670;27;20453;-88
2021/09/03 08:44:50;;;;;;;22.57;12.70;;;17.70;99.90;;;;;;5146362;27;20529;-86
2021/09/03 08:47:18;;;;;;;19.17;13.23;;;17.70;99.90;;;;;;5146868;27;20478;-87
2021/09/03 08:49:46;;;;;;;22.10;14.03;;;17.60;99.90;;;;;;5145116;27;20478;-87
2021/09/03 08:52:12;;;;;;;21.47;14.17;;;17.80;99.90;;;;;;5143987;27;20514;-87
2021/09/03 08:54:39;;;;;;;18.50;13.90;;;17.70;99.90;;;;;;5143449;27;20496;-87
2021/09/03 08:57:06;;;;;;;16.33;12.90;;;17.80;99.90;;;;;;5159931;27;20455;-86
2021/09/03 08:59:33;;;;;;;17.93;13.87;;;17.30;99.90;;;;;;5161134;27;20446;-86
2021/09/03 09:02:10;;;;;;;18.27;14.13;;;17.90;99.90;;;;;;5161605;27;20457;-87
2021/09/03 09:04:38;;;;;;;19.20;13.27;;;17.60;99.90;;;;;;5148341;27;20499;-86
2021/09/03 09:07:07;;;;;;;15.53;12.63;;;17.90;99.90;;;;;;5146032;27;20479;-87
2021/09/03 09:09:35;;;;;;;21.60;12.80;;;18.00;99.90;;;;;;5144157;27;20463;-87
2021/09/03 09:12:03;;;;;;;17.00;12.87;;;17.90;99.90;;;;;;5146466;27;20446;-87
2021/09/03 09:14:30;;;;;;;15.53;11.50;;;18.10;99.90;;;;;;5144165;27;20857;-88
2021/09/03 09:17:02;;;;;;;15.17;12.33;;;18.00;99.90;;;;;;5144376;27;20491;-88
2021/09/03 09:19:28;;;;;;;18.93;14.20;;;18.20;99.90;;;;;;5148501;27;20550;-88
2021/09/03 09:22:00;;;;;;;18.60;12.47;;;18.30;99.90;;;;;;5150284;27;20446;-87
2021/09/03 09:24:28;;;;;;;16.47;11.23;;;18.70;99.90;;;;;;5147994;27;20487;-87
2021/09/03 09:26:56;;;;;;;17.30;11.67;;;18.40;99.90;;;;;;5151665;27;20458;-87
2021/09/03 09:29:26;;;;;;;12.73;10.67;;;18.40;99.90;;;;;;5157557;27;20482;-87
2021/09/03 09:31:54;;;;;;;13.57;10.80;;;18.60;99.90;;;;;;5157282;27;20473;-86
2021/09/03 09:34:22;;;;;;;13.13;10.30;;;18.60;99.90;;;;;;5153982;27;20853;-87
2021/09/03 09:36:51;;;;;;;15.03;9.73;;;18.70;99.90;;;;;;5157915;27;20508;-87
2021/09/03 09:39:18;;;;;;;13.53;10.57;;;18.80;99.90;;;;;;5148699;27;20999;-87
2021/09/03 09:41:56;;;;;;;12.67;10.50;;;18.80;99.90;;;;;;5161506;22;20494;-84
2021/09/03 09:44:28;;;;;;;12.40;10.97;;;19.10;99.90;;;;;;5143648;27;20418;-85
2021/09/03 09:47:04;;;;;;;13.50;10.20;;;18.80;99.90;;;;;;5144320;27;20462;-84
2021/09/03 09:49:31;;;;;;;14.07;10.53;;;18.80;99.90;;;;;;5143424;27;20430;-85
2021/09/03 09:52:06;;;;;;;15.93;11.17;;;18.90;99.90;;;;;;5142935;27;20470;-84
2021/09/03 09:54:57;;;;;;;16.20;11.50;;;18.90;99.90;;;;;;5143674;27;20442;-83
2021/09/03 09:57:35;;;;;;;12.13;9.30;;;19.10;99.90;;;;;;5144449;27;20407;-83
2021/09/03 10:00:32;;;;;;;12.67;9.80;;;19.10;99.90;;;;;;5145888;27;20459;-84
2021/09/03 10:03:06;;;;;;;16.47;10.30;;;19.10;99.90;;;;;;5148969;27;20450;-83
2021/09/03 10:05:41;;;;;;;11.47;9.47;;;19.10;99.90;;;;;;5150695;27;20473;-85
2021/09/03 10:12:11;;;;;;;18.30;10.20;;;19.50;99.90;;;;;;5178904;22;20501;-84
2021/09/03 10:15:12;;;;;;;9.97;8.70;;;19.20;99.90;;;;;;5073839;28;20456;-83
2021/09/03 10:21:28;;;;;;;22.30;13.90;;;19.80;99.90;;;;;;5132698;27;20458;-83
2021/09/03 10:24:42;;;;;;;19.90;13.70;;;17.80;99.90;;;;;;5153079;27;20441;-85
2021/09/03 10:27:53;;;;;;;16.30;11.50;;;19.50;99.90;;;;;;5142995;27;20478;-85
2021/09/03 10:33:57;;;;;;;13.07;10.00;;;19.80;99.90;;;;;;5057513;28;20443;-84
2021/09/03 10:37:25;;;;;;;10.30;8.30;;;19.80;99.90;;;;;;5059574;28;20464;-84
2021/09/03 10:49:40;;;;;;;9.80;7.63;;;;;;;;;;5060983;28;20462;-85
2021/09/03 10:56:35;;;;;;;11.70;9.10;;;19.80;99.90;;;;;;5144959;27;20430;-84
2021/09/03 10:59:43;;;;;;;9.73;7.60;;;20.90;99.90;;;;;;5146004;27;20452;-84
2021/09/03 11:09:34;;;;;;;11.27;7.50;;;20.80;99.90;;;;;;5022517;28;20561;-85
2021/09/03 11:12:22;;;;;;;12.23;7.93;;;20.30;99.90;;;;;;5102093;27;20554;-85
2021/09/03 11:15:25;;;;;;;9.50;7.33;;;20.30;99.90;;;;;;5140566;27;20758;-85
2021/09/03 11:21:12;;;;;;;9.03;7.60;;;20.60;99.90;;;;;;5145554;27;20489;-85
2021/09/03 11:27:49;;;;;;;9.53;7.70;;;20.60;99.90;;;;;;5074013;28;20537;-84
2021/09/03 11:36:52;;;;;;;12.43;7.53;;;21.00;99.90;;;;;;5078605;28;20421;-85
2021/09/03 11:39:56;;;;;;;10.33;7.40;;;21.00;99.90;;;;;;5102097;28;20521;-85
2021/09/03 11:42:55;;;;;;;8.00;7.27;;;22.40;99.90;;;;;;5141400;28;20537;-85
2021/09/03 11:48:40;;;;;;;9.23;8.30;;;23.40;99.90;;;;;;5139030;28;20494;-85
2021/09/03 11:51:57;;;;;;;13.23;8.13;;;20.80;99.90;;;;;;5147876;27;20419;-85
2021/09/03 11:55:02;;;;;;;9.73;7.30;;;21.90;99.90;;;;;;5144263;27;20453;-85
2021/09/03 11:58:07;;;;;;;11.67;7.33;;;21.10;99.90;;;;;;5143084;27;20471;-85
2021/09/03 12:00:52;;;;;;;8.20;7.20;;;21.30;99.90;;;;;;5146453;27;20867;-85
2021/09/03 12:04:13;;;;;;;8.83;7.40;;;21.40;99.90;;;;;;5145855;27;20514;-86
2021/09/03 12:17:38;;;;;;;8.33;6.77;;;;;;;;;;5072151;27;20487;-84
2021/09/03 12:31:28;;;;;;;;;;;;;;;;;;;;;
2021/09/03 13:33:47;;;;;;;10.47;6.97;;;22.50;99.90;;;;;;4949266;28;20470;-84
2021/09/03 14:03:31;;;;;;;8.00;7.20;;;;;;;;;;5023192;28;20453;-86
2021/09/03 14:12:55;;;;;;;6.50;5.73;;;22.60;99.90;;;;;;5082981;27;20474;-84
2021/09/03 14:29:11;;;;;;;9.90;8.40;;;22.60;99.90;;;;;;5054952;28;20482;-86
2021/09/03 14:32:14;;;;;;;8.10;6.27;;;23.00;99.90;;;;;;5077092;28;20569;-85
2021/09/03 14:34:58;;;;;;;7.77;7.00;;;23.30;99.90;;;;;;5141849;27;20898;-85
2021/09/03 14:43:58;;;;;;;7.87;7.17;;;25.00;99.90;;;;;;5140948;27;20522;-86
2021/09/03 15:00:51;;;;;;;8.87;7.90;;;22.50;99.90;;;;;;5102427;27;20487;-85
2021/09/03 15:16:06;;;;;;;7.43;6.50;;;22.80;99.90;;;;;;5123232;27;20438;-86
2021/09/03 15:21:43;;;;;;;7.60;6.10;;;22.80;99.90;;;;;;5135706;27;20535;-86
2021/09/03 15:24:34;;;;;;;6.73;6.00;;;21.40;99.90;;;;;;5141283;27;20876;-86
2021/09/03 15:27:26;;;;;;;9.30;7.13;;;22.90;99.90;;;;;;5140245;27;20439;-86
2021/09/03 15:30:12;;;;;;;12.03;7.80;;;26.70;99.90;;;;;;5156228;27;20492;-85
2021/09/03 15:32:55;;;;;;;8.50;7.60;;;23.10;99.90;;;;;;5146762;27;20489;-85
2021/09/03 15:36:22;;;;;;;;;;;;;;;;;;;;;
2021/09/03 15:39:20;;;;;;;9.80;6.97;;;22.70;99.90;;;;;;5144717;28;20438;-85
2021/09/03 15:45:19;;;;;;;10.60;7.40;;;21.10;99.90;;;;;;5138361;28;20421;-85
2021/09/03 15:47:58;;;;;;;6.37;5.77;;;;;;;;;;5140351;28;20449;-85
2021/09/03 15:50:58;;;;;;;9.87;6.87;;;22.60;99.90;;;;;;5141469;28;20438;-85
2021/09/03 15:57:28;;;;;;;9.17;6.97;;;22.30;99.90;;;;;;5146945;28;20463;-85
2021/09/03 16:03:37;;;;;;;17.40;12.33;;;23.30;99.90;;;;;;5149270;28;20450;-86
2021/09/03 16:06:35;;;;;;;9.90;6.70;;;22.70;99.90;;;;;;5145164;28;20437;-86
2021/09/03 16:09:13;;;;;;;8.03;5.87;;;;;;;;;;5144262;28;20481;-86
2021/09/03 16:11:44;;;;;;;10.97;7.80;;;;;;;;;;5144610;28;20474;-86
2021/09/03 16:14:42;;;;;;;11.30;7.23;;;22.60;99.90;;;;;;5144205;28;20514;-86
2021/09/03 16:17:29;;;;;;;17.40;13.97;;;22.80;99.90;;;;;;5143366;28;21008;-86
2021/09/03 16:20:15;;;;;;;11.40;9.40;;;22.90;99.90;;;;;;5153039;28;20455;-86
2021/09/03 16:31:33;;;;;;;9.77;8.77;;;22.60;99.90;;;;;;5144163;28;20289;-85
2021/09/03 16:34:39;;;;;;;11.07;8.17;;;22.40;99.90;;;;;;5145549;28;20451;-86
2021/09/03 16:37:16;;;;;;;8.90;7.80;;;22.90;99.90;;;;;;5151594;27;20438;-85
2021/09/03 16:43:08;;;;;;;14.13;10.33;;;;;;;;;;5141710;27;20463;-86
2021/09/03 16:46:02;;;;;;;12.00;9.63;;;21.40;99.90;;;;;;5144588;27;20439;-85
2021/09/03 16:48:48;;;;;;;9.17;7.37;;;23.10;99.90;;;;;;5146411;27;20477;-86
2021/09/03 16:51:28;;;;;;;8.93;7.00;;;21.90;99.90;;;;;;5146040;27;20503;-86
2021/09/03 16:54:00;;;;;;;9.93;7.80;;;22.90;99.90;;;;;;5155644;27;20442;-86
2021/09/03 16:57:08;;;;;;;14.10;7.30;;;21.90;99.90;;;;;;5149416;27;20485;-86